SA280 HKJK-FAOR
Flight info
| Callsign | SA280 |
|---|---|
| Flight time | N/A |
| Altitude | 38000 |
| Route | ATUDU1D LOSIN UM315 USUBI UR409 AVOSI/N0464F400 UR409 VMV UP312 GWV UZ11 NESAG UZ7 OKPIT OKPIT4B |
| Aircraft | A343/H-SDE2E3FGHIJ4J5M1RWXY/LB1D1 |
Departure
| Time | 2026-05-06 00:41 |
|---|---|
| Airport | Jomo Kenyatta International Airport (HKJK) |
Arrival
| Time | N/A |
|---|---|
| Airport | O.R. Tambo International Airport (FAOR) |
| Time | Latitude | Longitude | Altitude | Speed | Heading |
|---|---|---|---|---|---|
| 2026-05-06 00:17 | -1.31527 | 36.92650 | 5331 ft | 0 kts | 274° |
| 2026-05-06 00:29 | -1.31528 | 36.92664 | 5337 ft | 3 kts | 274° |
| 2026-05-06 00:29 | -1.31530 | 36.92683 | 5335 ft | 3 kts | 274° |
| 2026-05-06 00:29 | -1.31531 | 36.92702 | 5335 ft | 3 kts | 274° |
| 2026-05-06 00:30 | -1.31532 | 36.92721 | 5336 ft | 3 kts | 274° |
| 2026-05-06 00:30 | -1.31534 | 36.92737 | 5336 ft | 0 kts | 274° |
| 2026-05-06 00:35 | -1.31542 | 36.92729 | 5330 ft | 4 kts | 222° |
| 2026-05-06 00:35 | -1.31605 | 36.92721 | 5334 ft | 16 kts | 190° |
| 2026-05-06 00:35 | -1.31702 | 36.92703 | 5333 ft | 17 kts | 192° |
| 2026-05-06 00:36 | -1.31812 | 36.92705 | 5338 ft | 14 kts | 152° |
| 2026-05-06 00:36 | -1.31894 | 36.92762 | 5338 ft | 15 kts | 143° |
| 2026-05-06 00:36 | -1.31978 | 36.92823 | 5338 ft | 15 kts | 146° |
| 2026-05-06 00:36 | -1.32068 | 36.92886 | 5339 ft | 17 kts | 143° |
| 2026-05-06 00:37 | -1.32166 | 36.92945 | 5334 ft | 16 kts | 169° |
| 2026-05-06 00:37 | -1.32234 | 36.92911 | 5339 ft | 10 kts | 226° |
| 2026-05-06 00:37 | -1.32279 | 36.92856 | 5340 ft | 11 kts | 231° |
| 2026-05-06 00:37 | -1.32326 | 36.92792 | 5340 ft | 14 kts | 236° |
| 2026-05-06 00:38 | -1.32397 | 36.92688 | 5343 ft | 23 kts | 236° |
| 2026-05-06 00:38 | -1.32503 | 36.92538 | 5344 ft | 30 kts | 230° |
| 2026-05-06 00:38 | -1.32593 | 36.92421 | 5346 ft | 34 kts | 233° |
| 2026-05-06 00:38 | -1.32745 | 36.92213 | 5349 ft | 40 kts | 234° |
| 2026-05-06 00:39 | -1.32850 | 36.91979 | 5348 ft | 37 kts | 263° |
| 2026-05-06 00:39 | -1.32857 | 36.91742 | 5352 ft | 13 kts | 292° |
| 2026-05-06 00:39 | -1.32823 | 36.91700 | 5353 ft | 11 kts | 317° |
| 2026-05-06 00:39 | -1.32753 | 36.91670 | 5353 ft | 11 kts | 4° |
| 2026-05-06 00:40 | -1.32606 | 36.91811 | 5350 ft | 50 kts | 46° |
| 2026-05-06 00:40 | -1.32470 | 36.92015 | 5346 ft | 62 kts | 56° |
| 2026-05-06 00:40 | -1.32119 | 36.92511 | 5342 ft | 112 kts | 54° |
| 2026-05-06 00:40 | -1.31567 | 36.93267 | 5317 ft | 155 kts | 53° |
| 2026-05-06 00:41 | -1.30894 | 36.94221 | 5622 ft | 166 kts | 57° |
| 2026-05-06 00:41 | -1.30310 | 36.95148 | 6294 ft | 156 kts | 58° |
| 2026-05-06 00:41 | -1.29643 | 36.95983 | 6814 ft | 152 kts | 45° |
| 2026-05-06 00:41 | -1.28792 | 36.96603 | 7241 ft | 156 kts | 32° |
| 2026-05-06 00:42 | -1.27815 | 36.97272 | 7380 ft | 181 kts | 36° |
| 2026-05-06 00:42 | -1.26744 | 36.98018 | 7727 ft | 194 kts | 36° |
| 2026-05-06 00:42 | -1.25614 | 36.98806 | 8189 ft | 202 kts | 36° |
| 2026-05-06 00:42 | -1.24448 | 36.99622 | 8704 ft | 207 kts | 36° |
| 2026-05-06 00:43 | -1.23259 | 37.00477 | 9198 ft | 214 kts | 40° |
| 2026-05-06 00:43 | -1.22301 | 37.01674 | 9516 ft | 231 kts | 71° |
| 2026-05-06 00:43 | -1.22289 | 37.03282 | 9947 ft | 243 kts | 113° |
| 2026-05-06 00:43 | -1.23438 | 37.04614 | 10038 ft | 274 kts | 151° |
| 2026-05-06 00:44 | -1.25388 | 37.04994 | 10069 ft | 306 kts | 187° |
| 2026-05-06 00:44 | -1.27489 | 37.04306 | 10235 ft | 330 kts | 203° |
| 2026-05-06 00:44 | -1.29652 | 37.03371 | 10462 ft | 348 kts | 202° |
| 2026-05-06 00:44 | -1.31869 | 37.02412 | 10688 ft | 338 kts | 202° |
| 2026-05-06 00:45 | -1.33940 | 37.01514 | 10843 ft | 318 kts | 202° |
| 2026-05-06 00:45 | -1.35921 | 37.00652 | 10948 ft | 302 kts | 203° |
| 2026-05-06 00:45 | -1.37803 | 36.99831 | 10982 ft | 289 kts | 203° |
| 2026-05-06 00:45 | -1.39680 | 36.99008 | 11010 ft | 305 kts | 204° |
| 2026-05-06 00:46 | -1.41678 | 36.98042 | 11054 ft | 333 kts | 206° |
| 2026-05-06 00:46 | -1.43811 | 36.96932 | 11094 ft | 358 kts | 207° |
| 2026-05-06 00:46 | -1.45265 | 36.96163 | 11107 ft | 372 kts | 207° |
| 2026-05-06 00:46 | -1.46101 | 36.95721 | 11115 ft | 377 kts | 207° |
| 2026-05-06 00:47 | -1.48433 | 36.94501 | 11139 ft | 379 kts | 207° |
| 2026-05-06 00:47 | -1.50780 | 36.93296 | 11165 ft | 379 kts | 206° |
| 2026-05-06 00:47 | -1.53132 | 36.92106 | 11183 ft | 379 kts | 206° |
| 2026-05-06 00:47 | -1.55486 | 36.90927 | 11200 ft | 378 kts | 206° |
| 2026-05-06 00:48 | -1.57843 | 36.89753 | 11234 ft | 378 kts | 206° |
| 2026-05-06 00:48 | -1.60173 | 36.88595 | 11258 ft | 379 kts | 206° |
| 2026-05-06 00:48 | -1.62535 | 36.87421 | 11285 ft | 379 kts | 206° |
| 2026-05-06 00:48 | -1.64898 | 36.86246 | 11302 ft | 379 kts | 206° |
| 2026-05-06 00:49 | -1.67265 | 36.85069 | 11335 ft | 379 kts | 206° |
| 2026-05-06 00:49 | -1.69627 | 36.83892 | 11334 ft | 379 kts | 206° |
| 2026-05-06 00:49 | -1.71991 | 36.82715 | 11357 ft | 380 kts | 206° |
| 2026-05-06 00:49 | -1.74354 | 36.81537 | 11381 ft | 380 kts | 206° |
| 2026-05-06 00:50 | -1.76718 | 36.80359 | 11408 ft | 380 kts | 206° |
| 2026-05-06 00:50 | -1.79084 | 36.79180 | 11426 ft | 380 kts | 206° |
| 2026-05-06 00:50 | -1.81450 | 36.78001 | 11459 ft | 380 kts | 206° |
| 2026-05-06 00:50 | -1.83817 | 36.76821 | 11475 ft | 380 kts | 206° |
| 2026-05-06 00:51 | -1.86188 | 36.75640 | 11501 ft | 381 kts | 206° |
| 2026-05-06 00:51 | -1.88564 | 36.74456 | 11498 ft | 382 kts | 206° |
| 2026-05-06 00:51 | -1.90946 | 36.73269 | 11532 ft | 383 kts | 206° |
| 2026-05-06 00:51 | -1.93329 | 36.72082 | 11559 ft | 383 kts | 206° |
| 2026-05-06 00:52 | -1.95715 | 36.70893 | 11585 ft | 383 kts | 206° |
| 2026-05-06 00:52 | -1.98072 | 36.69718 | 11608 ft | 383 kts | 206° |
| 2026-05-06 00:52 | -2.00457 | 36.68529 | 11631 ft | 383 kts | 206° |
| 2026-05-06 00:52 | -2.02853 | 36.67334 | 11655 ft | 383 kts | 206° |
| 2026-05-06 00:53 | -2.05241 | 36.66144 | 11675 ft | 384 kts | 206° |
| 2026-05-06 00:53 | -2.07632 | 36.64951 | 11710 ft | 384 kts | 206° |
| 2026-05-06 00:53 | -2.10026 | 36.63758 | 11717 ft | 384 kts | 206° |
| 2026-05-06 00:53 | -2.12419 | 36.62565 | 11733 ft | 384 kts | 206° |
| 2026-05-06 00:54 | -2.14810 | 36.61373 | 11752 ft | 384 kts | 206° |
| 2026-05-06 00:54 | -2.17207 | 36.60178 | 11788 ft | 385 kts | 206° |
| 2026-05-06 00:54 | -2.19605 | 36.58983 | 11804 ft | 385 kts | 206° |
| 2026-05-06 00:54 | -2.21952 | 36.57813 | 11840 ft | 386 kts | 206° |
| 2026-05-06 00:55 | -2.24355 | 36.56615 | 11862 ft | 386 kts | 206° |
| 2026-05-06 00:55 | -2.26759 | 36.55416 | 11885 ft | 386 kts | 206° |
| 2026-05-06 00:55 | -2.29165 | 36.54217 | 11894 ft | 386 kts | 206° |
| 2026-05-06 00:55 | -2.31572 | 36.53017 | 11929 ft | 386 kts | 206° |
| 2026-05-06 00:56 | -2.33982 | 36.51817 | 11957 ft | 387 kts | 206° |
| 2026-05-06 00:56 | -2.36396 | 36.50614 | 11976 ft | 387 kts | 206° |
| 2026-05-06 00:56 | -2.38807 | 36.49410 | 11993 ft | 387 kts | 206° |
| 2026-05-06 00:56 | -2.41210 | 36.48211 | 12028 ft | 386 kts | 205° |
| 2026-05-06 00:57 | -2.43619 | 36.47009 | 12049 ft | 386 kts | 205° |
| 2026-05-06 00:57 | -2.46025 | 36.45809 | 12076 ft | 386 kts | 206° |
| 2026-05-06 00:57 | -2.48430 | 36.44610 | 12086 ft | 387 kts | 206° |
| 2026-05-06 00:57 | -2.50828 | 36.43414 | 12107 ft | 387 kts | 206° |
| 2026-05-06 00:58 | -2.53221 | 36.42219 | 12128 ft | 387 kts | 206° |
| 2026-05-06 00:58 | -2.55601 | 36.41031 | 12145 ft | 388 kts | 206° |
| 2026-05-06 00:58 | -2.58023 | 36.39822 | 12245 ft | 392 kts | 206° |
| 2026-05-06 00:58 | -2.60476 | 36.38599 | 12794 ft | 394 kts | 206° |
| 2026-05-06 00:59 | -2.62932 | 36.37375 | 13435 ft | 395 kts | 206° |
| 2026-05-06 00:59 | -2.65405 | 36.36142 | 14011 ft | 399 kts | 206° |
| 2026-05-06 00:59 | -2.67905 | 36.34894 | 14494 ft | 402 kts | 206° |
| 2026-05-06 00:59 | -2.70401 | 36.33649 | 15050 ft | 403 kts | 206° |
| 2026-05-06 01:00 | -2.72921 | 36.32391 | 15576 ft | 405 kts | 206° |
| 2026-05-06 01:00 | -2.75449 | 36.31130 | 16103 ft | 407 kts | 206° |
| 2026-05-06 01:00 | -2.78002 | 36.29856 | 16667 ft | 409 kts | 206° |
| 2026-05-06 01:00 | -2.80547 | 36.28585 | 17226 ft | 412 kts | 206° |
| 2026-05-06 01:01 | -2.83123 | 36.27300 | 17801 ft | 414 kts | 206° |
| 2026-05-06 01:01 | -2.83961 | 36.26882 | 18013 ft | 415 kts | 206° |